Terminal Aerodrome Forecast
Issued by NWS

Home | Current Version | Previous Version | Text Only | Print | Product List | Glossary On
Versions: 1 2 3 4 5 6 7 8 9 10 11 12 13 14 15 16
000
FTUS45 KABQ 062300 RRA
TAFGUP
TAF
KGUP 062340Z 0700/0724 24016G27KT P6SM VCSH SCT080 BKN120
      TEMPO 0700/0702 VRB18G28KT BKN070
     FM070200 23007KT P6SM SCT080 BKN120
     FM070900 VRB06KT P6SM FEW025 SCT120
      TEMPO 0710/0714 SCT015
     FM071900 22018G30KT P6SM FEW090 SCT150=

USA.gov is the U.S. government's official web portal to all federal, state and local government web resources and services.